Etusivu
METAR-TAF:

METAR-TAF

Lentoasemat :

Bardufoss, Norja

Leveyspiiri: 69-04N, Pituuspiiri: 018-32E, korkeus merenpinnasta: 7 m

Tämänhetkinen sää

Tämä raportti tehtiin 53 minuuttia sitten, kello 17.50 UTC
Tuuli 2 kn luoteesta
Lämpötila 5°C
Kosteus 93%
Ilmanpaine 1024 hPa
Näkyvyys 10 km tai enemmän
ei pilviä alle 1500 m:ssä eikä cumulonimbus-pilviä

METAR: ENDU 221750Z 31002KT CAVOK 05/04 Q1024 NOSIG RMK WIND 1100FT 12004KT WIND 2200FT 14008KT

Aika: 20:43 (18:43 UTC)

Sääennuste

Ennuste voimassa 22. päivästä klo 18 UTC - 23. päivään klo 18 UTC
Tuuli 5 kn etelästä/lounaasta
Näkyvyys 10 km tai enemmän
Muutamia pilviä 4000 ft:n korkeudessa

TAF: ENDU 2218/2318 21005KT 9999 FEW040

Säähavainnot ja -ennusteet yli 4000 lentoasemalta (METAR- ja TAF-raportit).

Käytössä olevat sääasemat on merkitty karttaan keltaisilla ja punaisilla pisteillä.

Aseta hiiri pisteen päälle nähdäksesi sääaseman nimen.

Klikkaa sitten nähdäksesi säähavainnot ja -ennusteet.

Kartan vaihtaminen: klikkaa mustalla rastilla varustettuja vihreitä pisteitä, niin voit zoomata sisään; viivalla varustettua vihreää pistettä, niin voit zoomata ulos tai vihreitä nuolia, niin pääset viereisille kartoille.


METAR-TAF: